Time;durP1;ratioP1;P1;durP2;ratioP2;P2;SDS_P1;SDS_P2;PMS_P1;PMS_P2;Temp;Humidity;BMP_temperature;BMP_pressure;BME280_temperature;BME280_humidity;BME280_pressure;Samples;Min_cycle;Max_cycle;Signal;HPM_P1;HPM_P2
2023/09/09 00:02:33;;;;;;;9.57;5.32;;;;;;;;;;5045817;28;20041;-75
2023/09/09 00:05:18;;;;;;;8.55;4.95;;;;;;;;;;5053940;28;20041;-75
2023/09/09 00:08:04;;;;;;;8.48;5.47;;;;;;;;;;5053764;28;20044;-75
2023/09/09 00:10:53;;;;;;;8.82;4.65;;;;;;;;;;5060772;28;20044;-75
2023/09/09 00:13:38;;;;;;;8.60;5.43;;;;;;;;;;5053555;28;20048;-74
2023/09/09 00:16:23;;;;;;;6.93;4.90;;;;;;;;;;5060464;28;20044;-75
2023/09/09 00:19:09;;;;;;;11.40;5.40;;;;;;;;;;5054435;28;20036;-75
2023/09/09 00:21:55;;;;;;;8.52;5.00;;;;;;;;;;5060560;28;20049;-74
2023/09/09 00:24:40;;;;;;;10.05;5.07;;;;;;;;;;5053858;28;20490;-74
2023/09/09 00:27:26;;;;;;;9.40;4.95;;;;;;;;;;5053522;28;20041;-74
2023/09/09 00:30:12;;;;;;;12.20;5.00;;;;;;;;;;5054011;28;20041;-75
2023/09/09 00:32:58;;;;;;;11.75;5.22;;;;;;;;;;5038789;28;20040;-74
2023/09/09 00:35:44;;;;;;;9.23;6.03;;;;;;;;;;5053621;28;20173;-76
2023/09/09 00:38:29;;;;;;;8.13;5.13;;;;;;;;;;5060537;28;20699;-76
2023/09/09 00:41:17;;;;;;;7.95;5.13;;;;;;;;;;5045209;28;20056;-75
2023/09/09 00:44:02;;;;;;;8.48;5.00;;;;;;;;;;5060263;28;20427;-75
2023/09/09 00:46:54;;;;;;;8.38;4.78;;;;;;;;;;5045001;28;20040;-75
2023/09/09 00:49:44;;;;;;;7.22;4.70;;;;;;;;;;5039017;28;20045;-75
2023/09/09 00:52:32;;;;;;;7.65;4.95;;;;;;;;;;5049435;28;20053;-76
2023/09/09 00:55:20;;;;;;;9.52;6.18;;;;;;;;;;5049867;28;20049;-76
2023/09/09 00:58:10;;;;;;;7.78;5.82;;;;;;;;;;5049640;28;20049;-74
2023/09/09 01:00:56;;;;;;;10.32;5.82;;;;;;;;;;5042768;28;20044;-74
2023/09/09 01:03:42;;;;;;;6.78;5.25;;;;;;;;;;5057138;28;20053;-76
2023/09/09 01:06:27;;;;;;;10.25;5.70;;;;;;;;;;5048497;28;20045;-76
2023/09/09 01:09:13;;;;;;;8.00;5.28;;;;;;;;;;5057110;28;20052;-75
2023/09/09 01:11:59;;;;;;;6.57;5.00;;;;;;;;;;5063826;28;20040;-75
2023/09/09 01:14:44;;;;;;;6.75;4.68;;;;;;;;;;5057135;28;20049;-74
2023/09/09 01:17:30;;;;;;;8.38;4.80;;;;;;;;;;5056919;28;20390;-75
2023/09/09 01:20:20;;;;;;;8.18;5.65;;;;;;;;;;5057165;28;20037;-75
2023/09/09 01:23:06;;;;;;;10.88;4.97;;;;;;;;;;5055483;28;20045;-75
2023/09/09 01:25:52;;;;;;;8.13;5.10;;;;;;;;;;5056595;28;20041;-75
2023/09/09 01:28:38;;;;;;;9.75;5.15;;;;;;;;;;5056545;28;20041;-74
2023/09/09 01:31:23;;;;;;;7.45;5.07;;;;;;;;;;5048182;28;20037;-75
2023/09/09 01:34:09;;;;;;;10.23;5.03;;;;;;;;;;5048311;28;20057;-74
2023/09/09 01:36:54;;;;;;;7.63;5.10;;;;;;;;;;5056505;28;20627;-74
2023/09/09 01:39:40;;;;;;;11.13;5.78;;;;;;;;;;5048198;28;20044;-74
2023/09/09 01:42:25;;;;;;;10.55;5.45;;;;;;;;;;5048462;28;20037;-75
2023/09/09 01:45:12;;;;;;;7.90;5.28;;;;;;;;;;5056323;28;20489;-74
2023/09/09 01:47:58;;;;;;;6.32;5.00;;;;;;;;;;5048075;28;20402;-75
2023/09/09 01:50:45;;;;;;;8.75;5.22;;;;;;;;;;5047910;28;20053;-74
2023/09/09 01:53:31;;;;;;;7.60;5.07;;;;;;;;;;5047900;28;20041;-74
2023/09/09 01:56:16;;;;;;;7.28;5.22;;;;;;;;;;5056492;28;20390;-74
2023/09/09 01:59:02;;;;;;;11.27;5.28;;;;;;;;;;5047736;28;20029;-74
2023/09/09 02:01:47;;;;;;;13.38;5.00;;;;;;;;;;5046703;28;20398;-74
2023/09/09 02:04:32;;;;;;;7.38;5.45;;;;;;;;;;5056546;28;20037;-74
2023/09/09 02:07:18;;;;;;;12.77;5.53;;;;;;;;;;5047950;28;20053;-74
2023/09/09 02:10:04;;;;;;;6.47;4.70;;;;;;;;;;5047700;28;20045;-75
2023/09/09 02:12:48;;;;;;;7.57;5.60;;;;;;;;;;5045561;28;20037;-74
2023/09/09 02:15:33;;;;;;;12.73;6.20;;;;;;;;;;5047724;28;20041;-74
2023/09/09 02:18:19;;;;;;;7.72;4.95;;;;;;;;;;5047451;28;20045;-74
2023/09/09 02:21:06;;;;;;;6.97;5.20;;;;;;;;;;5047805;28;20478;-74
2023/09/09 02:23:51;;;;;;;8.93;5.57;;;;;;;;;;5056001;28;20041;-74
2023/09/09 02:26:37;;;;;;;7.95;5.43;;;;;;;;;;5055308;28;20037;-74
2023/09/09 02:29:23;;;;;;;7.65;5.13;;;;;;;;;;5047359;28;20040;-74
2023/09/09 02:32:08;;;;;;;7.93;5.00;;;;;;;;;;5047460;28;20041;-73
2023/09/09 02:34:53;;;;;;;9.07;4.75;;;;;;;;;;5047030;28;20037;-73
2023/09/09 02:37:39;;;;;;;10.30;5.57;;;;;;;;;;5047261;28;20045;-74
2023/09/09 02:40:25;;;;;;;7.95;5.00;;;;;;;;;;5055518;28;20040;-74
2023/09/09 02:43:11;;;;;;;8.25;5.50;;;;;;;;;;5055442;28;20044;-74
2023/09/09 02:45:56;;;;;;;6.85;5.13;;;;;;;;;;5047079;28;20037;-74
2023/09/09 02:48:41;;;;;;;6.60;5.03;;;;;;;;;;5054927;28;20041;-74
2023/09/09 02:51:26;;;;;;;9.10;5.63;;;;;;;;;;5046837;28;20041;-74
2023/09/09 02:54:12;;;;;;;9.77;5.47;;;;;;;;;;5047089;28;20041;-75
2023/09/09 02:56:57;;;;;;;6.22;4.75;;;;;;;;;;5055451;28;20040;-75
2023/09/09 02:59:43;;;;;;;8.18;5.30;;;;;;;;;;5043041;28;20045;-75
2023/09/09 03:02:32;;;;;;;9.00;6.20;;;;;;;;;;5046591;28;20045;-76
2023/09/09 03:05:17;;;;;;;8.30;5.28;;;;;;;;;;5055135;28;20486;-75
2023/09/09 03:08:04;;;;;;;11.73;5.63;;;;;;;;;;5054843;28;20041;-75
2023/09/09 03:10:53;;;;;;;9.60;5.63;;;;;;;;;;5046547;28;20041;-75
2023/09/09 03:13:37;;;;;;;6.55;5.00;;;;;;;;;;5042027;28;20070;-76
2023/09/09 03:16:22;;;;;;;10.80;5.97;;;;;;;;;;5046239;28;20053;-75
2023/09/09 03:19:08;;;;;;;12.65;5.45;;;;;;;;;;5046778;28;20478;-75
2023/09/09 03:21:54;;;;;;;10.93;5.32;;;;;;;;;;5046396;28;20049;-75
2023/09/09 03:24:39;;;;;;;9.25;5.68;;;;;;;;;;5054681;28;20049;-75
2023/09/09 03:27:25;;;;;;;11.85;5.45;;;;;;;;;;5046312;28;20049;-75
2023/09/09 03:30:11;;;;;;;7.82;5.60;;;;;;;;;;5032206;28;20048;-75
2023/09/09 03:32:56;;;;;;;8.48;5.50;;;;;;;;;;5046113;28;20049;-76
2023/09/09 03:35:42;;;;;;;10.20;5.45;;;;;;;;;;5054268;28;20490;-75
2023/09/09 03:38:28;;;;;;;8.95;5.93;;;;;;;;;;5046165;28;20040;-74
2023/09/09 03:41:13;;;;;;;7.25;5.40;;;;;;;;;;5046195;28;20041;-74
2023/09/09 03:44:00;;;;;;;8.98;5.40;;;;;;;;;;5045879;28;20049;-74
2023/09/09 03:46:46;;;;;;;10.70;5.68;;;;;;;;;;5045884;28;20037;-74
2023/09/09 03:49:31;;;;;;;11.40;5.82;;;;;;;;;;5046420;28;20463;-75
2023/09/09 03:52:17;;;;;;;12.18;5.97;;;;;;;;;;5054482;28;20040;-75
2023/09/09 03:55:03;;;;;;;10.40;6.10;;;;;;;;;;5061083;28;20040;-75
2023/09/09 03:57:51;;;;;;;10.75;6.07;;;;;;;;;;5054219;28;20037;-76
2023/09/09 04:00:37;;;;;;;8.93;5.68;;;;;;;;;;5045562;28;20041;-74
2023/09/09 04:03:22;;;;;;;11.55;5.95;;;;;;;;;;5045825;28;20045;-75
2023/09/09 04:06:09;;;;;;;10.15;5.95;;;;;;;;;;5054024;28;20041;-73
2023/09/09 04:08:57;;;;;;;14.48;5.65;;;;;;;;;;5039391;28;20045;-75
2023/09/09 04:11:43;;;;;;;9.10;5.40;;;;;;;;;;5045894;28;20045;-75
2023/09/09 04:14:28;;;;;;;8.35;5.63;;;;;;;;;;5053654;28;20414;-74
2023/09/09 04:17:13;;;;;;;7.85;5.47;;;;;;;;;;5045427;28;20084;-73
2023/09/09 04:19:58;;;;;;;7.55;5.55;;;;;;;;;;5045373;28;20394;-74
2023/09/09 04:22:43;;;;;;;11.65;5.97;;;;;;;;;;5045485;28;20045;-74
2023/09/09 04:25:29;;;;;;;7.85;5.57;;;;;;;;;;5044800;28;20478;-74
2023/09/09 04:28:14;;;;;;;9.77;5.60;;;;;;;;;;5045111;28;20041;-74
2023/09/09 04:31:02;;;;;;;9.40;5.78;;;;;;;;;;5045182;28;20390;-74
2023/09/09 04:33:48;;;;;;;8.93;5.10;;;;;;;;;;5044979;28;20048;-74
2023/09/09 04:36:33;;;;;;;10.30;5.90;;;;;;;;;;5045106;28;20045;-74
2023/09/09 04:39:19;;;;;;;8.10;5.40;;;;;;;;;;5045194;28;20048;-74
2023/09/09 04:42:07;;;;;;;7.68;5.10;;;;;;;;;;5045179;28;20060;-74
2023/09/09 04:44:52;;;;;;;9.88;5.78;;;;;;;;;;5053620;28;20490;-74
2023/09/09 04:47:38;;;;;;;9.70;6.15;;;;;;;;;;5044848;28;20056;-74
2023/09/09 04:50:23;;;;;;;9.38;5.40;;;;;;;;;;5045396;28;20041;-74
2023/09/09 04:53:08;;;;;;;8.85;5.38;;;;;;;;;;5059785;28;20053;-74
2023/09/09 04:55:53;;;;;;;9.45;5.53;;;;;;;;;;5045098;28;20047;-74
2023/09/09 04:58:38;;;;;;;9.40;5.85;;;;;;;;;;5053126;28;20036;-74
2023/09/09 05:01:23;;;;;;;13.10;5.50;;;;;;;;;;5044269;28;20049;-75
2023/09/09 05:04:08;;;;;;;9.38;6.18;;;;;;;;;;5044523;28;20045;-75
2023/09/09 05:06:54;;;;;;;15.57;7.20;;;;;;;;;;5052835;28;20056;-76
2023/09/09 05:09:39;;;;;;;12.52;6.55;;;;;;;;;;5053616;28;20390;-75
2023/09/09 05:12:25;;;;;;;12.18;5.72;;;;;;;;;;5044122;28;20045;-75
2023/09/09 05:15:11;;;;;;;9.35;5.60;;;;;;;;;;5044966;28;20041;-75
2023/09/09 05:17:57;;;;;;;11.15;5.90;;;;;;;;;;5045114;28;20385;-76
2023/09/09 05:20:43;;;;;;;10.55;5.68;;;;;;;;;;5044854;28;20040;-76
2023/09/09 05:23:28;;;;;;;14.15;5.57;;;;;;;;;;5045067;28;20041;-76
2023/09/09 05:26:14;;;;;;;10.25;5.80;;;;;;;;;;5053031;28;20041;-75
2023/09/09 05:29:01;;;;;;;16.38;6.13;;;;;;;;;;5053176;28;20478;-75
2023/09/09 05:31:46;;;;;;;12.00;5.90;;;;;;;;;;5030805;28;20041;-75
2023/09/09 05:34:32;;;;;;;15.05;6.47;;;;;;;;;;5059744;28;20421;-75
2023/09/09 05:37:17;;;;;;;10.98;6.47;;;;;;;;;;5045955;28;20490;-75
2023/09/09 05:40:03;;;;;;;14.18;6.75;;;;;;;;;;5056170;28;20041;-76
2023/09/09 05:42:48;;;;;;;15.82;6.20;;;;;;;;;;5048046;28;20044;-75
2023/09/09 05:45:34;;;;;;;16.52;7.57;;;;;;;;;;5047921;28;20490;-76
2023/09/09 05:48:20;;;;;;;14.90;5.68;;;;;;;;;;5047872;28;20049;-75
2023/09/09 05:51:05;;;;;;;10.27;5.40;;;;;;;;;;5048067;28;20048;-76
2023/09/09 05:53:51;;;;;;;10.05;4.70;;;;;;;;;;5048339;28;20044;-76
2023/09/09 05:56:36;;;;;;;11.60;5.55;;;;;;;;;;5041197;28;20049;-75
2023/09/09 05:59:22;;;;;;;10.60;5.15;;;;;;;;;;5047422;28;20049;-75
2023/09/09 06:02:08;;;;;;;13.35;5.43;;;;;;;;;;5056289;28;20045;-75
2023/09/09 06:04:53;;;;;;;10.90;5.78;;;;;;;;;;5047792;28;20418;-75
2023/09/09 06:07:39;;;;;;;9.73;5.30;;;;;;;;;;5047549;28;20036;-76
2023/09/09 06:10:25;;;;;;;16.70;5.97;;;;;;;;;;5047569;28;20474;-76
2023/09/09 06:13:09;;;;;;;13.73;5.90;;;;;;;;;;5044690;28;20045;-76
2023/09/09 06:15:54;;;;;;;11.88;5.40;;;;;;;;;;5047222;28;20041;-76
2023/09/09 06:18:41;;;;;;;12.68;8.20;;;;;;;;;;5047087;28;20056;-75
2023/09/09 06:21:26;;;;;;;11.55;5.53;;;;;;;;;;5055536;28;20410;-75
2023/09/09 06:24:12;;;;;;;11.05;5.70;;;;;;;;;;5047460;28;20048;-75
2023/09/09 06:26:57;;;;;;;10.65;5.97;;;;;;;;;;5047278;28;20037;-75
2023/09/09 06:29:43;;;;;;;8.20;5.25;;;;;;;;;;5047144;28;20045;-75
2023/09/09 06:32:29;;;;;;;10.13;5.93;;;;;;;;;;5055862;28;20045;-75
2023/09/09 06:35:14;;;;;;;8.23;5.43;;;;;;;;;;5055548;28;20391;-75
2023/09/09 06:38:00;;;;;;;12.27;5.20;;;;;;;;;;5046941;28;20045;-74
2023/09/09 06:40:47;;;;;;;7.13;4.90;;;;;;;;;;5055386;28;20495;-76
2023/09/09 06:43:33;;;;;;;16.58;5.85;;;;;;;;;;5055331;28;20052;-75
2023/09/09 06:46:18;;;;;;;17.27;6.28;;;;;;;;;;5062227;28;20045;-75
2023/09/09 06:49:04;;;;;;;12.80;5.43;;;;;;;;;;5054659;28;20045;-76
2023/09/09 06:51:49;;;;;;;9.05;5.32;;;;;;;;;;5062343;28;20041;-75
2023/09/09 06:54:36;;;;;;;12.98;6.30;;;;;;;;;;5061484;28;20040;-75
2023/09/09 06:57:21;;;;;;;17.55;6.65;;;;;;;;;;5061412;28;20045;-75
2023/09/09 07:00:08;;;;;;;10.98;6.10;;;;;;;;;;5055011;28;20048;-76
2023/09/09 07:02:54;;;;;;;10.48;6.57;;;;;;;;;;5061506;28;20041;-75
2023/09/09 07:05:41;;;;;;;10.40;5.93;;;;;;;;;;5054937;28;20044;-75
2023/09/09 07:08:27;;;;;;;12.35;5.13;;;;;;;;;;5039891;28;20041;-75
2023/09/09 07:11:12;;;;;;;17.92;7.35;;;;;;;;;;5054250;28;20045;-75
2023/09/09 07:13:57;;;;;;;11.27;5.70;;;;;;;;;;5054513;28;20405;-75
2023/09/09 07:16:42;;;;;;;12.88;5.30;;;;;;;;;;5054450;28;20041;-75
2023/09/09 07:19:28;;;;;;;11.40;5.88;;;;;;;;;;5054885;28;20063;-75
2023/09/09 07:22:13;;;;;;;17.60;7.20;;;;;;;;;;5054966;28;20044;-75
2023/09/09 07:24:59;;;;;;;17.48;5.13;;;;;;;;;;5061240;28;20075;-75
2023/09/09 07:27:44;;;;;;;17.55;5.30;;;;;;;;;;5054068;28;20475;-75
2023/09/09 07:30:32;;;;;;;10.45;5.38;;;;;;;;;;5054183;28;20394;-75
2023/09/09 07:33:18;;;;;;;9.38;5.30;;;;;;;;;;5061432;28;20044;-75
2023/09/09 07:36:04;;;;;;;12.50;5.50;;;;;;;;;;5061067;28;20041;-74
2023/09/09 07:38:49;;;;;;;11.95;5.57;;;;;;;;;;5054132;28;20041;-74
2023/09/09 07:41:35;;;;;;;13.02;5.63;;;;;;;;;;5053876;28;20045;-74
2023/09/09 07:44:20;;;;;;;11.88;6.15;;;;;;;;;;5054040;28;20032;-75
2023/09/09 07:47:07;;;;;;;14.57;6.15;;;;;;;;;;5053555;28;20061;-76
2023/09/09 07:49:52;;;;;;;11.80;6.07;;;;;;;;;;5052992;28;20041;-74
2023/09/09 07:52:37;;;;;;;10.45;5.93;;;;;;;;;;5038423;28;20045;-74
2023/09/09 07:55:22;;;;;;;12.63;5.70;;;;;;;;;;5053687;28;20037;-75
2023/09/09 07:58:08;;;;;;;13.73;5.95;;;;;;;;;;5060486;28;20462;-75
2023/09/09 08:01:07;;;;;;;8.32;5.57;;;;;;;;;;5052266;28;20049;-75
2023/09/09 08:03:53;;;;;;;11.85;5.40;;;;;;;;;;5057862;28;20050;-76
2023/09/09 08:06:39;;;;;;;9.13;5.80;;;;;;;;;;5052696;28;20053;-74
2023/09/09 08:09:26;;;;;;;13.77;5.80;;;;;;;;;;5053328;28;20398;-75
2023/09/09 08:12:11;;;;;;;12.15;6.28;;;;;;;;;;5037998;28;20052;-73
2023/09/09 08:15:12;;;;;;;8.98;5.68;;;;;;;;;;5052822;28;20037;-75
2023/09/09 08:17:58;;;;;;;14.10;6.13;;;;;;;;;;5053725;28;20386;-75
2023/09/09 08:20:44;;;;;;;14.15;5.88;;;;;;;;;;5060039;28;20044;-74
2023/09/09 08:23:29;;;;;;;9.13;5.35;;;;;;;;;;5060087;28;20132;-75
2023/09/09 08:26:15;;;;;;;10.02;5.00;;;;;;;;;;5053441;28;20045;-74
2023/09/09 08:29:00;;;;;;;12.90;5.35;;;;;;;;;;5053181;28;20135;-76
2023/09/09 08:31:47;;;;;;;13.25;4.90;;;;;;;;;;5053979;28;20382;-76
2023/09/09 08:34:33;;;;;;;10.57;5.25;;;;;;;;;;5053089;28;20398;-76
2023/09/09 08:37:18;;;;;;;7.95;4.68;;;;;;;;;;5053234;28;20041;-77
2023/09/09 08:40:04;;;;;;;7.88;4.85;;;;;;;;;;5053627;28;20045;-77
2023/09/09 08:42:58;;;;;;;15.23;5.10;;;;;;;;;;5053276;28;20049;-76
2023/09/09 08:45:47;;;;;;;;;;;;;;;;;;5054101;28;20479;-76
2023/09/09 08:48:36;;;;;;;8.32;4.15;;;;;;;;;;5052884;28;19917;-75
2023/09/09 08:51:30;;;;;;;8.77;4.20;;;;;;;;;;5059745;28;20045;-76
2023/09/09 08:54:15;;;;;;;10.40;4.50;;;;;;;;;;5053308;28;20045;-75
2023/09/09 08:57:02;;;;;;;5.22;3.90;;;;;;;;;;5052984;28;20048;-76
2023/09/09 08:59:49;;;;;;;8.10;3.80;;;;;;;;;;5052853;28;20041;-76
2023/09/09 09:02:35;;;;;;;14.32;4.32;;;;;;;;;;5059707;28;20041;-76
2023/09/09 09:05:20;;;;;;;9.38;4.38;;;;;;;;;;5052741;28;20041;-75
2023/09/09 09:08:07;;;;;;;7.28;4.63;;;;;;;;;;5037477;28;20513;-75
2023/09/09 09:10:52;;;;;;;8.57;4.63;;;;;;;;;;5053868;28;20033;-75
2023/09/09 09:13:38;;;;;;;8.27;4.35;;;;;;;;;;5056151;28;20037;-75
2023/09/09 09:16:23;;;;;;;7.88;4.53;;;;;;;;;;5056956;28;20060;-75
2023/09/09 09:19:25;;;;;;;17.65;4.50;;;;;;;;;;5062999;28;20041;-76
2023/09/09 09:22:13;;;;;;;10.23;4.22;;;;;;;;;;5056314;28;20041;-75
2023/09/09 09:24:58;;;;;;;7.47;3.75;;;;;;;;;;5056762;28;20041;-74
2023/09/09 09:27:44;;;;;;;5.30;3.67;;;;;;;;;;5041442;28;20053;-74
2023/09/09 09:30:31;;;;;;;7.57;3.78;;;;;;;;;;5056355;28;20045;-74
2023/09/09 09:33:19;;;;;;;9.48;3.88;;;;;;;;;;5057114;28;20048;-76
2023/09/09 09:36:04;;;;;;;8.70;4.07;;;;;;;;;;5048091;28;20053;-76
2023/09/09 09:38:52;;;;;;;9.63;3.83;;;;;;;;;;5063005;28;20386;-75
2023/09/09 09:41:40;;;;;;;7.50;3.90;;;;;;;;;;5056520;28;20041;-76
2023/09/09 09:44:25;;;;;;;7.00;4.20;;;;;;;;;;5056210;28;20394;-75
2023/09/09 09:47:11;;;;;;;7.10;3.90;;;;;;;;;;5056115;28;20048;-73
2023/09/09 09:49:57;;;;;;;8.32;3.92;;;;;;;;;;5062930;28;20482;-73
2023/09/09 09:52:48;;;;;;;5.30;3.30;;;;;;;;;;5056222;28;20052;-73
2023/09/09 09:55:35;;;;;;;6.13;3.03;;;;;;;;;;5056465;28;20478;-73
2023/09/09 09:58:22;;;;;;;6.72;3.20;;;;;;;;;;5056228;28;20041;-72
2023/09/09 10:01:09;;;;;;;8.68;2.80;;;;;;;;;;5056107;28;20041;-75
2023/09/09 10:04:04;;;;;;;5.45;2.40;;;;;;;;;;5041477;28;20045;-74
2023/09/09 10:06:55;;;;;;;9.73;2.63;;;;;;;;;;5040891;28;20050;-75
2023/09/09 10:10:09;;;;;;;10.13;2.60;;;;;;;;;;5055919;28;20041;-75
2023/09/09 10:13:01;;;;;;;6.65;2.50;;;;;;;;;;5055152;28;20045;-74
2023/09/09 10:15:48;;;;;;;6.22;2.83;;;;;;;;;;5062450;28;20056;-73
2023/09/09 10:18:37;;;;;;;5.95;3.00;;;;;;;;;;5055603;28;20041;-73
2023/09/09 10:21:24;;;;;;;6.65;2.85;;;;;;;;;;5040960;28;20494;-74
2023/09/09 10:24:10;;;;;;;5.82;2.47;;;;;;;;;;5054360;28;20048;-74
2023/09/09 10:27:00;;;;;;;4.13;2.58;;;;;;;;;;5062007;28;20474;-74
2023/09/09 10:29:47;;;;;;;5.30;2.55;;;;;;;;;;5055475;28;20045;-74
2023/09/09 10:32:34;;;;;;;5.70;3.20;;;;;;;;;;5055067;28;20037;-74
2023/09/09 10:35:21;;;;;;;3.65;2.30;;;;;;;;;;5032928;28;20045;-74
2023/09/09 10:38:09;;;;;;;5.32;2.75;;;;;;;;;;5055497;28;20083;-73
2023/09/09 10:40:55;;;;;;;4.93;2.63;;;;;;;;;;5055264;28;20041;-73
2023/09/09 10:43:40;;;;;;;5.90;2.60;;;;;;;;;;5062344;28;20053;-74
2023/09/09 10:46:33;;;;;;;4.60;2.50;;;;;;;;;;5054464;28;20045;-74
2023/09/09 10:49:26;;;;;;;5.03;2.70;;;;;;;;;;5054976;28;20041;-78
2023/09/09 10:52:31;;;;;;;5.53;2.50;;;;;;;;;;5061985;28;20041;-77
2023/09/09 10:55:18;;;;;;;6.05;2.78;;;;;;;;;;5061499;28;20045;-75
2023/09/09 10:58:15;;;;;;;5.97;2.47;;;;;;;;;;5062296;28;20100;-76
2023/09/09 11:01:02;;;;;;;13.35;2.70;;;;;;;;;;5061982;28;20049;-76
2023/09/09 11:03:48;;;;;;;7.70;2.42;;;;;;;;;;5054843;28;20041;-75
2023/09/09 11:06:33;;;;;;;4.97;3.30;;;;;;;;;;5055170;28;20045;-76
2023/09/09 11:09:39;;;;;;;4.85;3.05;;;;;;;;;;5055243;28;20049;-78
2023/09/09 11:12:32;;;;;;;4.32;2.70;;;;;;;;;;5055362;28;20478;-77
2023/09/09 11:15:25;;;;;;;7.43;2.53;;;;;;;;;;5062431;28;20049;-75
2023/09/09 11:18:15;;;;;;;4.88;2.53;;;;;;;;;;5060641;28;20040;-75
2023/09/09 11:21:02;;;;;;;7.60;2.90;;;;;;;;;;5053219;28;20057;-75
2023/09/09 11:23:49;;;;;;;4.68;2.60;;;;;;;;;;5052506;28;20033;-73
2023/09/09 11:26:38;;;;;;;4.00;2.20;;;;;;;;;;5060255;28;20045;-73
2023/09/09 11:29:23;;;;;;;6.65;2.50;;;;;;;;;;5044888;28;20049;-73
2023/09/09 11:32:09;;;;;;;5.00;2.38;;;;;;;;;;5054226;28;20045;-72
2023/09/09 11:34:57;;;;;;;4.00;2.60;;;;;;;;;;5053968;28;20044;-74
2023/09/09 11:37:42;;;;;;;4.18;2.60;;;;;;;;;;5061037;28;20044;-77
2023/09/09 11:40:28;;;;;;;4.00;2.63;;;;;;;;;;5060816;28;20049;-75
2023/09/09 11:43:16;;;;;;;9.10;2.78;;;;;;;;;;5053906;28;20390;-76
2023/09/09 11:46:02;;;;;;;10.50;3.10;;;;;;;;;;5053398;28;20515;-76
2023/09/09 11:48:48;;;;;;;7.53;2.63;;;;;;;;;;5053565;28;20471;-74
2023/09/09 11:51:35;;;;;;;4.03;2.45;;;;;;;;;;5060645;28;20103;-75
2023/09/09 11:54:20;;;;;;;5.43;2.63;;;;;;;;;;5053796;28;20037;-75
2023/09/09 11:57:07;;;;;;;8.82;2.95;;;;;;;;;;5060230;28;20036;-74
2023/09/09 11:59:54;;;;;;;6.72;2.83;;;;;;;;;;5045826;28;20041;-74
2023/09/09 12:02:46;;;;;;;5.68;2.83;;;;;;;;;;5060434;28;20478;-74
2023/09/09 12:05:32;;;;;;;7.95;2.95;;;;;;;;;;5060780;28;20037;-75
2023/09/09 12:08:18;;;;;;;7.78;2.40;;;;;;;;;;5053563;28;20049;-75
2023/09/09 12:11:06;;;;;;;7.80;3.10;;;;;;;;;;5053806;28;20041;-76
2023/09/09 12:13:52;;;;;;;6.28;2.60;;;;;;;;;;5053200;28;20045;-76
2023/09/09 12:16:38;;;;;;;4.22;2.60;;;;;;;;;;5038647;28;20486;-76
2023/09/09 12:19:24;;;;;;;11.10;3.28;;;;;;;;;;5053500;28;20049;-78
2023/09/09 12:22:09;;;;;;;12.00;3.03;;;;;;;;;;5053664;28;20036;-74
2023/09/09 12:24:55;;;;;;;8.98;3.25;;;;;;;;;;5045084;28;20044;-73
2023/09/09 12:27:45;;;;;;;6.72;2.60;;;;;;;;;;5060227;28;20048;-76
2023/09/09 12:30:39;;;;;;;6.65;2.70;;;;;;;;;;5060369;28;20040;-76
2023/09/09 12:33:24;;;;;;;3.50;2.53;;;;;;;;;;5059976;28;20045;-76
2023/09/09 12:36:17;;;;;;;6.85;3.08;;;;;;;;;;5060226;28;20048;-75
2023/09/09 12:39:03;;;;;;;7.65;3.05;;;;;;;;;;5053513;28;20048;-76
2023/09/09 12:42:08;;;;;;;3.70;2.67;;;;;;;;;;5053665;28;20041;-76
2023/09/09 12:44:53;;;;;;;;;;;;;;;;;;5053781;28;20056;-74
2023/09/09 12:47:38;;;;;;;5.47;2.88;;;;;;;;;;5059912;28;19917;-73
2023/09/09 12:50:24;;;;;;;14.50;2.92;;;;;;;;;;5059850;28;20398;-73
2023/09/09 12:53:10;;;;;;;6.22;2.58;;;;;;;;;;5044742;28;20041;-73
2023/09/09 12:55:55;;;;;;;6.03;3.00;;;;;;;;;;5059572;28;20045;-74
2023/09/09 12:58:41;;;;;;;4.75;2.70;;;;;;;;;;5059755;28;20056;-76
2023/09/09 13:01:27;;;;;;;8.40;2.63;;;;;;;;;;5065945;28;20490;-75
2023/09/09 13:04:12;;;;;;;5.15;2.72;;;;;;;;;;5060103;28;20041;-76
2023/09/09 13:06:58;;;;;;;7.70;2.88;;;;;;;;;;5059748;28;20052;-75
2023/09/09 13:09:43;;;;;;;5.85;2.70;;;;;;;;;;5059772;28;20045;-75
2023/09/09 13:12:29;;;;;;;6.30;2.53;;;;;;;;;;5059897;28;20045;-75
2023/09/09 13:15:14;;;;;;;9.70;2.95;;;;;;;;;;5059787;28;20045;-76
2023/09/09 13:18:00;;;;;;;5.38;2.60;;;;;;;;;;5059783;28;20048;-75
2023/09/09 13:20:46;;;;;;;5.03;2.47;;;;;;;;;;5059546;28;20037;-75
2023/09/09 13:23:31;;;;;;;4.13;2.67;;;;;;;;;;5059750;28;20390;-74
2023/09/09 13:26:17;;;;;;;7.35;3.15;;;;;;;;;;5059880;28;20506;-74
2023/09/09 13:29:02;;;;;;;5.57;2.55;;;;;;;;;;5066026;28;20037;-74
2023/09/09 13:31:48;;;;;;;8.25;2.80;;;;;;;;;;5059730;28;20486;-76
2023/09/09 13:34:34;;;;;;;5.97;2.58;;;;;;;;;;5059635;28;20041;-73
2023/09/09 13:37:19;;;;;;;4.00;2.70;;;;;;;;;;5059963;28;20044;-74
2023/09/09 13:40:05;;;;;;;5.65;2.58;;;;;;;;;;5066429;28;20510;-74
2023/09/09 13:42:50;;;;;;;9.88;2.55;;;;;;;;;;5059461;28;20040;-75
2023/09/09 13:45:36;;;;;;;8.27;2.72;;;;;;;;;;5059846;28;20053;-74
2023/09/09 13:48:22;;;;;;;6.53;2.75;;;;;;;;;;5059326;28;20040;-74
2023/09/09 13:51:10;;;;;;;6.38;2.78;;;;;;;;;;5059862;28;20049;-73
2023/09/09 13:53:55;;;;;;;11.55;2.53;;;;;;;;;;5059928;28;20041;-73
2023/09/09 13:56:40;;;;;;;4.82;2.70;;;;;;;;;;5059173;28;20053;-73
2023/09/09 13:59:26;;;;;;;4.72;2.40;;;;;;;;;;5062779;28;20057;-75
2023/09/09 14:02:11;;;;;;;5.35;2.50;;;;;;;;;;5056318;28;20491;-73
2023/09/09 14:04:57;;;;;;;4.93;2.45;;;;;;;;;;5056652;28;20044;-73
2023/09/09 14:07:42;;;;;;;3.63;2.40;;;;;;;;;;5056025;28;20040;-73
2023/09/09 14:10:28;;;;;;;7.22;2.20;;;;;;;;;;5056091;28;20049;-73
2023/09/09 14:13:14;;;;;;;5.63;2.63;;;;;;;;;;5055556;28;20045;-74
2023/09/09 14:15:59;;;;;;;6.15;2.35;;;;;;;;;;5055907;28;20048;-74
2023/09/09 14:18:48;;;;;;;5.75;2.35;;;;;;;;;;5055518;28;20041;-74
2023/09/09 14:21:33;;;;;;;6.43;2.60;;;;;;;;;;5056291;28;20048;-74
2023/09/09 14:24:19;;;;;;;5.82;2.33;;;;;;;;;;5055624;28;20049;-75
2023/09/09 14:27:06;;;;;;;5.22;2.33;;;;;;;;;;5055678;28;20506;-74
2023/09/09 14:29:53;;;;;;;5.97;3.40;;;;;;;;;;5056272;28;20045;-76
2023/09/09 14:32:38;;;;;;;6.20;3.15;;;;;;;;;;5056138;28;20049;-74
2023/09/09 14:35:24;;;;;;;4.28;2.20;;;;;;;;;;5056161;28;20045;-75
2023/09/09 14:38:09;;;;;;;5.88;2.30;;;;;;;;;;5062175;28;20049;-75
2023/09/09 14:40:55;;;;;;;5.15;2.20;;;;;;;;;;5055311;28;20045;-74
2023/09/09 14:43:40;;;;;;;7.03;2.58;;;;;;;;;;5055540;28;20048;-74
2023/09/09 14:46:27;;;;;;;4.80;2.60;;;;;;;;;;5055281;28;20482;-73
2023/09/09 14:49:12;;;;;;;5.72;2.60;;;;;;;;;;5054944;28;20045;-73
2023/09/09 14:51:58;;;;;;;8.52;3.05;;;;;;;;;;5062131;28;20045;-75
2023/09/09 14:54:44;;;;;;;7.95;2.80;;;;;;;;;;5062099;28;20045;-72
2023/09/09 14:57:29;;;;;;;3.92;2.60;;;;;;;;;;5054909;28;20048;-73
2023/09/09 15:00:15;;;;;;;3.90;2.42;;;;;;;;;;5054855;28;20052;-74
2023/09/09 15:03:00;;;;;;;4.72;2.53;;;;;;;;;;5040061;28;20052;-73
2023/09/09 15:05:46;;;;;;;8.70;2.72;;;;;;;;;;5054972;28;20053;-73
2023/09/09 15:08:30;;;;;;;4.30;2.45;;;;;;;;;;5054061;28;20041;-75
2023/09/09 15:11:16;;;;;;;7.55;2.50;;;;;;;;;;5054648;28;20048;-76
2023/09/09 15:14:03;;;;;;;3.72;2.45;;;;;;;;;;5054515;28;20410;-74
2023/09/09 15:16:56;;;;;;;3.92;2.38;;;;;;;;;;5054684;28;20041;-74
2023/09/09 15:19:42;;;;;;;4.90;2.60;;;;;;;;;;5054569;28;20037;-74
2023/09/09 15:22:28;;;;;;;4.97;2.40;;;;;;;;;;5054177;28;20049;-74
2023/09/09 15:25:14;;;;;;;4.78;2.45;;;;;;;;;;5046146;28;20037;-77
2023/09/09 15:27:59;;;;;;;5.05;2.33;;;;;;;;;;5054094;28;20053;-74
2023/09/09 15:30:46;;;;;;;6.15;2.55;;;;;;;;;;5053711;28;20045;-74
2023/09/09 15:33:31;;;;;;;3.72;2.35;;;;;;;;;;5045161;28;20049;-74
2023/09/09 15:36:16;;;;;;;6.00;2.30;;;;;;;;;;5053413;28;20494;-74
2023/09/09 15:39:03;;;;;;;7.95;2.20;;;;;;;;;;5038537;28;20470;-75
2023/09/09 15:41:48;;;;;;;6.03;2.35;;;;;;;;;;5054170;28;20036;-74
2023/09/09 15:44:34;;;;;;;4.85;2.40;;;;;;;;;;5052601;28;20050;-73
2023/09/09 15:47:20;;;;;;;10.43;2.70;;;;;;;;;;5053244;28;20053;-74
2023/09/09 15:50:06;;;;;;;4.93;2.90;;;;;;;;;;5052441;28;20041;-75
2023/09/09 15:52:52;;;;;;;8.85;3.40;;;;;;;;;;5053193;28;20052;-73
2023/09/09 15:55:37;;;;;;;6.38;3.63;;;;;;;;;;5052455;28;20053;-74
2023/09/09 15:58:23;;;;;;;5.80;2.78;;;;;;;;;;5059173;28;20045;-73
2023/09/09 16:01:09;;;;;;;8.25;3.00;;;;;;;;;;5052158;28;20041;-75
2023/09/09 16:03:54;;;;;;;7.75;2.95;;;;;;;;;;5053763;28;20045;-73
2023/09/09 16:06:40;;;;;;;7.88;2.45;;;;;;;;;;5038698;28;20049;-75
2023/09/09 16:09:25;;;;;;;7.18;2.88;;;;;;;;;;5053599;28;20041;-74
2023/09/09 16:12:11;;;;;;;15.52;2.75;;;;;;;;;;5053690;28;20041;-73
2023/09/09 16:14:57;;;;;;;7.80;2.33;;;;;;;;;;5060949;28;20037;-74
2023/09/09 16:17:44;;;;;;;12.32;2.90;;;;;;;;;;5053873;28;20486;-74
2023/09/09 16:20:29;;;;;;;10.02;3.13;;;;;;;;;;5052949;28;20037;-74
2023/09/09 16:23:14;;;;;;;9.35;3.25;;;;;;;;;;5053311;28;20041;-74
2023/09/09 16:26:00;;;;;;;6.28;3.03;;;;;;;;;;5060613;28;20045;-73
2023/09/09 16:28:45;;;;;;;12.15;2.67;;;;;;;;;;5060351;28;20473;-73
2023/09/09 16:31:31;;;;;;;12.07;2.72;;;;;;;;;;5053348;28;20045;-73
2023/09/09 16:34:16;;;;;;;10.88;2.75;;;;;;;;;;5053940;28;20045;-73